< Typhoon 201225 2013 Season Typhoon 201302 >
Typhoon 201301 (SONAMU)
General InformationTrack Information on Google MapsDetailed Wind InformationForecast History on Google MapsAccess Analytics MapList of All Images || NewsDisaster Info.WeblogTrackbackTyphoon FrontTwiphoonTyphoon Now!Typhoon ImaginationDisaster Info. XMLResourceGoogle EarthGE AnimationAtom FeedGeoJSON
Detalied Best Track (Time Zone = UTC)
Year Month Day Hour Lat. Long. Pressure (hPa) Wind (kt) Class Image Chart
2013 1 1 00 4.1 141.7 1006 0 2 Image Chart
2013 1 1 06 4.4 139.5 1004 0 2 Image Chart
2013 1 1 12 4.6 137.2 1006 0 2 Image Chart
2013 1 1 18 5.3 135.0 1006 0 2 Image Chart
2013 1 2 00 6.1 132.6 1006 0 2 Image Chart
2013 1 2 06 6.7 130.4 1004 0 2 Image Chart
2013 1 2 12 7.4 128.4 1006 0 2 Image Chart
2013 1 2 18 8.0 126.2 1004 0 2 Image Chart
2013 1 3 00 8.4 123.7 1006 0 2 Image Chart
2013 1 3 06 8.4 121.6 1004 0 2 Image Chart
2013 1 3 12 8.6 119.6 1002 35 3 Image Chart
2013 1 3 18 8.5 117.9 1002 35 3 Image Chart
2013 1 4 00 8.4 116.2 1002 35 3 Image Chart
2013 1 4 06 8.2 115.4 998 40 3 Image Chart
2013 1 4 12 8.1 114.2 996 40 3 Image Chart
2013 1 4 18 8.0 113.0 992 45 3 Image Chart
2013 1 5 00 7.9 112.2 990 50 4 Image Chart
2013 1 5 06 7.7 111.6 990 50 4 Image Chart
2013 1 5 12 7.5 111.1 990 50 4 Image Chart
2013 1 5 18 7.3 110.4 990 50 4 Image Chart
2013 1 6 00 7.3 109.9 990 50 4 Image Chart
2013 1 6 06 7.2 109.3 994 45 3 Image Chart
2013 1 6 12 7.1 108.8 994 45 3 Image Chart
2013 1 6 18 6.9 108.3 994 45 3 Image Chart
2013 1 7 00 6.5 108.1 994 45 3 Image Chart
2013 1 7 06 6.2 108.1 996 40 3 Image Chart
2013 1 7 12 6.0 108.2 998 35 3 Image Chart
2013 1 7 18 5.8 108.2 1000 35 3 Image Chart
2013 1 8 00 5.6 108.5 1004 0 2 Image Chart
2013 1 8 06 5.4 109.0 1006 0 2 Image Chart
2013 1 8 12 5.0 109.4 1008 0 2 Image Chart
2013 1 8 18 4.6 109.8 1006 0 2 Image Chart
2013 1 9 00 4.3 110.4 1006 0 2 Image Chart
2013 1 9 06 4.0 110.7 1006 0 2 Image Chart
2013 1 9 12 3.6 111.2 1006 0 2 Image Chart
2013 1 9 18 3.2 111.5 1006 0 2 Image Chart
2013 1 10 00 3.3 112.0 1008 0 2 Image Chart
Japan Meteorological Agency Best Track Data | Correction Date : 2013-01-25
< Typhoon 201225 2013 Season Typhoon 201302 >

Help